Time;durP1;ratioP1;P1;durP2;ratioP2;P2;SDS_P1;SDS_P2;PMS_P1;PMS_P2;Temp;Humidity;BMP_temperature;BMP_pressure;BME280_temperature;BME280_humidity;BME280_pressure;Samples;Min_cycle;Max_cycle;Signal;HPM_P1;HPM_P2
2024/02/09 00:04:24;;;;;;;12.90;9.10;;;;;;;0.81;88.60;96870.35;435475;1256;110702;-38
2024/02/09 00:14:33;;;;;;;16.20;9.90;;;;;;;0.85;88.63;96865.80;435445;1256;108484;-39
2024/02/09 00:24:42;;;;;;;20.10;10.40;;;;;;;0.70;88.89;96860.30;435477;1254;96632;-39
2024/02/09 00:34:51;;;;;;;12.80;10.20;;;;;;;0.67;89.05;96853.35;435247;1250;110771;-39
2024/02/09 00:45:01;;;;;;;16.20;9.40;;;;;;;0.78;89.06;96844.77;435287;1251;108498;-38
2024/02/09 00:55:11;;;;;;;11.80;7.70;;;;;;;0.88;89.16;96837.11;435396;1254;97577;-40
2024/02/09 01:05:20;;;;;;;16.80;10.40;;;;;;;0.90;89.31;96834.48;435570;1250;108641;-40
2024/02/09 03:09:45;;;;;;;8.50;6.60;;;;;;;0.77;91.28;96738.03;435379;1254;108147;-40
2024/02/09 03:29:59;;;;;;;7.50;3.90;;;;;;;0.88;91.61;96722.21;435347;1254;110636;-39
2024/02/09 03:40:08;;;;;;;4.40;3.90;;;;;;;0.92;91.81;96724.94;435493;1254;107311;-40
2024/02/09 03:50:15;;;;;;;;;;;;;;;0.89;92.24;96724.70;435495;1250;96631;-40
2024/02/09 04:00:22;;;;;;;4.90;3.70;;;;;;;0.84;92.57;96725.39;435486;1254;110397;-39
2024/02/09 04:10:30;;;;;;;4.20;3.30;;;;;;;0.90;92.44;96716.88;434938;1254;631720;-40
2024/02/09 04:20:50;;;;;;;3.10;2.30;;;;;;;0.96;92.98;96711.48;435368;1255;97882;-40
2024/02/09 04:30:57;;;;;;;5.30;3.80;;;;;;;0.97;93.01;96710.67;435446;1254;109734;-39
2024/02/09 04:41:04;;;;;;;3.80;2.20;;;;;;;0.88;93.44;96696.05;435392;1254;108208;-40
2024/02/09 05:21:40;;;;;;;4.40;3.20;;;;;;;1.00;93.76;96673.13;435465;1254;97570;-39
2024/02/09 05:31:49;;;;;;;6.70;3.70;;;;;;;1.00;93.91;96668.35;435295;1251;107783;-39
2024/02/09 05:41:54;;;;;;;;;;;;;;;0.92;93.91;96654.41;435429;1254;107343;-39
2024/02/09 05:52:02;;;;;;;4.10;3.40;;;;;;;0.87;94.10;96652.66;435381;1254;97957;-40
2024/02/09 06:02:09;;;;;;;6.30;3.50;;;;;;;0.92;94.00;96648.13;435404;1256;110667;-41
2024/02/09 06:12:16;;;;;;;3.10;2.80;;;;;;;0.99;93.99;96643.43;435289;1254;107775;-40
2024/02/09 06:22:23;;;;;;;4.10;3.30;;;;;;;1.08;93.96;96653.00;435336;1257;96635;-40
2024/02/09 06:32:31;;;;;;;6.50;5.00;;;;;;;1.08;94.22;96660.48;435387;1255;109311;-39
2024/02/09 06:42:39;;;;;;;7.30;4.80;;;;;;;1.07;94.38;96670.51;435450;1250;97897;-39
2024/02/09 07:02:55;;;;;;;6.40;4.80;;;;;;;1.21;94.23;96678.13;435344;1255;107330;-39
2024/02/09 07:13:02;;;;;;;15.90;8.00;;;;;;;1.26;94.35;96678.29;435408;1255;97903;-40
2024/02/09 07:23:10;;;;;;;19.90;11.90;;;;;;;1.24;94.57;96684.06;435614;1254;109251;-41
2024/02/09 07:33:21;;;;;;;16.60;11.80;;;;;;;1.28;94.19;96689.18;435317;1250;108412;-40
2024/02/09 07:43:28;;;;;;;11.00;7.60;;;;;;;1.40;94.33;96679.61;435363;1250;97934;-41
2024/02/09 07:53:36;;;;;;;14.70;11.10;;;;;;;1.56;94.45;96677.86;435523;1254;110941;-40
2024/02/09 08:03:43;;;;;;;28.20;16.40;;;;;;;1.69;94.40;96675.62;435328;1254;108263;-41
2024/02/09 08:13:51;;;;;;;45.00;23.00;;;;;;;1.72;94.69;96668.91;435492;1254;97877;-41
2024/02/09 08:24:00;;;;;;;33.80;20.10;;;;;;;1.74;94.22;96659.91;435554;1251;110387;-40
2024/02/09 08:34:07;;;;;;;38.30;22.60;;;;;;;1.88;94.43;96661.64;435428;1254;108675;-40
2024/02/09 08:44:15;;;;;;;38.60;21.40;;;;;;;2.13;94.62;96661.55;435412;1251;97874;-41
2024/02/09 08:54:22;;;;;;;61.40;30.60;;;;;;;2.35;94.80;96646.09;435487;1256;110685;-41
2024/02/09 09:04:29;;;;;;;49.10;27.20;;;;;;;2.50;94.96;96640.85;435501;1256;107950;-40
2024/02/09 09:14:36;;;;;;;39.60;26.60;;;;;;;2.77;95.16;96644.16;435506;1250;97471;-39
2024/02/09 09:44:57;;;;;;;41.00;27.90;;;;;;;3.73;95.74;96638.39;435304;1254;96651;-40
2024/02/09 09:55:04;;;;;;;57.00;33.30;;;;;;;3.94;96.11;96639.36;435326;1250;107759;-40
2024/02/09 10:05:09;;;;;;;69.00;37.60;;;;;;;4.08;96.33;96630.09;435427;1257;96621;-39
2024/02/09 10:15:17;;;;;;;60.10;38.20;;;;;;;4.34;96.53;96624.80;435401;1250;97864;-40
2024/02/09 10:25:24;;;;;;;73.90;45.30;;;;;;;4.67;96.67;96607.79;435356;1250;108387;-40
2024/02/09 10:35:32;;;;;;;67.00;44.20;;;;;;;4.97;96.91;96601.79;435231;1250;97871;-39
2024/02/09 10:45:37;;;;;;;67.50;39.90;;;;;;;5.36;97.22;96586.58;435371;1256;109931;-39
2024/02/09 10:55:51;;;;;;;94.10;55.10;;;;;;;5.86;97.50;96556.06;435416;1256;107722;-39
2024/02/09 11:05:57;;;;;;;93.40;50.90;;;;;;;6.58;98.00;96541.14;435414;1254;97903;-39
2024/02/09 11:16:07;;;;;;;90.30;54.30;;;;;;;7.02;97.87;96542.19;435251;1255;109937;-39
2024/02/09 11:26:16;;;;;;;90.50;57.10;;;;;;;7.23;97.83;96527.53;435291;1257;105852;-40
2024/02/09 11:36:21;;;;;;;84.70;52.90;;;;;;;7.58;98.38;96511.29;435379;1261;97554;-40
2024/02/09 11:46:29;;;;;;;87.80;52.50;;;;;;;7.89;98.55;96503.14;435323;1251;109519;-38
2024/02/09 11:56:36;;;;;;;98.80;55.70;;;;;;;7.89;98.28;96500.30;435400;1251;96635;-39
2024/02/09 12:06:44;;;;;;;94.90;61.80;;;;;;;7.79;98.32;96506.86;435469;1256;109466;-39
2024/02/09 12:16:51;;;;;;;100.20;62.80;;;;;;;7.83;98.36;96506.36;435276;1264;107946;-39
2024/02/09 12:37:04;;;;;;;45.80;18.80;;;;;;;8.35;99.30;96502.94;435283;1254;109324;-40
2024/02/09 12:47:10;;;;;;;38.80;12.40;;;;;;;8.64;99.59;96495.45;435453;1251;97867;-40
2024/02/09 12:57:15;;;;;;;34.80;12.50;;;;;;;8.84;99.48;96493.16;435215;1256;110351;-39
2024/02/09 13:07:22;;;;;;;25.10;12.40;;;;;;;9.03;99.75;96478.25;435215;1255;107519;-40
2024/02/09 13:17:29;;;;;;;41.10;12.90;;;;;;;9.16;99.66;96472.11;435161;1264;97887;-40
2024/02/09 13:27:37;;;;;;;25.70;10.10;;;;;;;9.14;99.49;96480.83;435260;1255;108255;-39
2024/02/09 13:57:59;;;;;;;37.30;14.80;;;;;;;9.07;99.65;96464.80;435298;1254;107538;-40
2024/02/09 14:08:07;;;;;;;39.10;16.20;;;;;;;9.05;99.68;96457.74;435403;1264;97858;-39
2024/02/09 14:18:15;;;;;;;29.60;12.70;;;;;;;9.08;99.94;96452.66;435264;1254;106573;-38
2024/02/09 14:28:23;;;;;;;31.80;15.20;;;;;;;9.05;99.95;96456.84;435370;1264;97749;-39
2024/02/09 14:38:30;;;;;;;44.50;19.40;;;;;;;9.01;99.98;96453.66;435371;1254;110341;-39
2024/02/09 14:48:38;;;;;;;34.50;16.70;;;;;;;8.94;99.98;96459.15;435282;1257;108690;-39
2024/02/09 14:58:45;;;;;;;48.30;20.30;;;;;;;8.94;100.00;96463.11;435369;1256;97982;-40
2024/02/09 15:08:53;;;;;;;39.40;18.40;;;;;;;8.88;100.00;96459.09;435370;1254;108665;-39
2024/02/09 15:19:01;;;;;;;38.30;17.10;;;;;;;8.87;100.00;96460.00;435397;1254;96638;-39
2024/02/09 15:29:08;;;;;;;46.40;19.90;;;;;;;8.85;100.00;96457.16;435452;1254;109896;-39
2024/02/09 15:49:23;;;;;;;48.50;21.30;;;;;;;8.77;100.00;96452.15;435441;1254;97887;-39
2024/02/09 15:59:29;;;;;;;52.50;26.10;;;;;;;8.77;100.00;96454.73;435391;1254;108077;-39
2024/02/09 16:09:37;;;;;;;57.20;27.80;;;;;;;8.72;100.00;96455.73;434998;1254;427311;-40
2024/02/09 16:19:45;;;;;;;56.30;27.00;;;;;;;8.70;100.00;96465.02;435180;1254;109911;-40
2024/02/09 16:29:53;;;;;;;57.00;25.90;;;;;;;8.70;100.00;96468.60;435561;1251;106194;-40
2024/02/09 16:40:04;;;;;;;65.30;32.40;;;;;;;8.69;100.00;96467.18;435409;1251;97937;-39
2024/02/09 16:50:09;;;;;;;65.10;32.90;;;;;;;8.69;100.00;96463.17;435360;1251;107778;-39
2024/02/09 17:00:18;;;;;;;62.50;30.50;;;;;;;8.68;100.00;96474.41;435444;1254;97248;-40
2024/02/09 17:10:25;;;;;;;55.80;32.70;;;;;;;8.68;100.00;96474.41;435403;1254;109159;-40
2024/02/09 17:20:33;;;;;;;72.60;37.90;;;;;;;8.69;100.00;96469.88;435299;1251;109891;-39
2024/02/09 17:30:41;;;;;;;61.50;33.90;;;;;;;8.68;100.00;96469.04;435576;1250;97979;-41
2024/02/09 17:40:47;;;;;;;54.00;31.90;;;;;;;8.70;100.00;96473.61;435336;1255;107689;-40
2024/02/09 17:50:54;;;;;;;57.70;33.90;;;;;;;8.70;100.00;96471.61;435175;1264;97843;-40
2024/02/09 18:01:01;;;;;;;55.80;30.70;;;;;;;8.68;100.00;96473.77;435454;1254;109403;-40
2024/02/09 18:21:16;;;;;;;55.50;29.30;;;;;;;8.66;100.00;96476.89;435332;1251;97897;-40
2024/02/09 18:31:25;;;;;;;55.50;28.20;;;;;;;8.64;100.00;96475.11;435353;1254;107751;-39
2024/02/09 18:41:31;;;;;;;;;;;;;;;8.63;100.00;96485.08;435373;1251;97795;-42
2024/02/09 18:51:38;;;;;;;62.60;32.70;;;;;;;8.54;100.00;96488.48;435363;1250;110376;-39
2024/02/09 19:01:44;;;;;;;47.30;26.70;;;;;;;8.52;100.00;96479.11;435266;1264;107312;-39
2024/02/09 19:11:51;;;;;;;52.60;28.60;;;;;;;8.54;100.00;96473.27;435298;1255;97480;-40
2024/02/09 19:21:58;;;;;;;50.50;27.60;;;;;;;8.54;100.00;96464.30;435348;1254;111349;-40
2024/02/09 19:32:05;;;;;;;51.80;29.00;;;;;;;8.54;100.00;96465.52;435169;1254;107956;-39
2024/02/09 19:42:14;;;;;;;55.60;31.70;;;;;;;8.48;100.00;96472.78;435265;1250;97877;-41
2024/02/09 19:52:22;;;;;;;48.30;31.80;;;;;;;8.45;100.00;96471.38;435220;1254;107618;-39
2024/02/09 20:02:29;;;;;;;47.40;28.60;;;;;;;8.45;100.00;96466.53;435478;1254;97899;-40
2024/02/09 20:12:48;;;;;;;60.30;33.90;;;;;;;8.43;100.00;96472.23;435394;1254;110458;-40
2024/02/09 20:22:55;;;;;;;70.00;35.00;;;;;;;8.32;100.00;96489.30;435456;1250;109521;-40
2024/02/09 20:43:09;;;;;;;47.00;26.10;;;;;;;8.14;99.97;96499.12;435398;1254;109668;-40
2024/02/09 21:13:30;;;;;;;51.00;28.30;;;;;;;7.87;99.68;96497.25;435292;1264;108267;-40
2024/02/09 21:23:37;;;;;;;61.00;36.10;;;;;;;7.64;99.64;96497.25;435490;1251;97501;-38
2024/02/09 21:33:45;;;;;;;61.90;34.00;;;;;;;7.42;99.81;96496.02;435326;1254;110479;-40
2024/02/09 21:43:52;;;;;;;56.40;31.70;;;;;;;7.33;99.66;96502.68;435294;1250;107851;-40
2024/02/09 21:54:00;;;;;;;60.40;33.70;;;;;;;7.26;99.44;96501.09;435240;1255;97461;-40
2024/02/09 22:04:05;;;;;;;57.70;31.30;;;;;;;7.21;99.44;96495.00;435357;1254;110821;-40
2024/02/09 22:14:11;;;;;;;58.50;32.70;;;;;;;7.09;99.27;96495.48;435481;1254;107610;-39
2024/02/09 22:24:20;;;;;;;64.10;38.40;;;;;;;6.92;99.01;96496.23;435270;1254;97954;-41
2024/02/09 22:34:29;;;;;;;81.50;46.40;;;;;;;6.85;99.21;96492.98;435291;1254;109498;-39
2024/02/09 22:44:36;;;;;;;;;;;;;;;6.79;99.16;96495.17;435284;1250;96671;-40
2024/02/09 22:54:43;;;;;;;90.10;47.70;;;;;;;6.69;99.19;96487.85;435323;1254;110701;-42
2024/02/09 23:04:53;;;;;;;72.50;40.80;;;;;;;6.57;99.27;96493.61;435357;1250;109742;-40
2024/02/09 23:15:01;;;;;;;68.90;40.50;;;;;;;6.49;99.33;96493.89;435376;1250;97525;-40
2024/02/09 23:25:09;;;;;;;101.50;52.30;;;;;;;6.43;99.38;96484.38;435198;1254;107221;-40
2024/02/09 23:35:16;;;;;;;86.00;47.40;;;;;;;6.38;99.57;96475.42;435402;1254;97880;-39
2024/02/09 23:45:24;;;;;;;82.60;47.00;;;;;;;6.32;99.60;96473.48;435197;1254;110414;-40
2024/02/09 23:55:31;;;;;;;77.50;44.40;;;;;;;6.31;99.87;96473.27;435261;1255;109739;-41
